x

New London Ledge Ct - Ledge Light Weather Station (ldlc3) Weather Station

7:50 - Tue 30th Aug 2016 All times are EDT. -4 hours from GMT.

  • Wind
    15mph, 17mph gusts
  • Aire Temp 73°f
  • Sea Pressure 1017mb
  • New London Ledge Ct - Ledge Light Weather Station
  • New London Ledge Ct - Ledge Light Weather Station

More Historic Weather Station data

Upgrade to MSW Pro to gain access to the past 30 days of data for over 8000 Wavebouys and Weather Stations around the globe.

Join Pro

Comparision Forecast

View Surf forecast
   
mar 08/30 7:50 15 17 mph 1017mb 73f
7:35 17 18 mph 1016.8mb 73f
7:20 15 16 mph 1017mb 73f
7:05 13 14 mph 1017mb 73f
6:50 13 15 mph 1017mb 74f
6:35 14 15 mph 1017mb 74f
6:20 10 11 mph 1017.2mb 74f
6:05 11
mph
1017.2mb 74f
5:50 11 14 mph 1017.3mb 75f
5:35 11 14 mph 1017.5mb 74f
5:20 13 14 mph 1017.5mb 75f
5:05 11 14 mph 1017.5mb 74f
4:50 9 11 mph 1017.5mb 72f
4:35 11 13 mph 1017.5mb 72f
4:20 11 13 mph 1017.8mb 72f
4:05 11 13 mph 1017.9mb 72f
3:50 10 11 mph 1018mb 72f
3:35 9 10 mph 1018mb 72f
3:20 10 11 mph 1018.3mb 73f
3:05 10 11 mph 1018.6mb 73f
2:50 8 10 mph 1018.7mb 72f
2:35 8 9 mph 1019.1mb 73f
2:20 8
mph
1019.2mb 73f
2:05 8 9 mph 1019.5mb 73f
1:50 7 8 mph 1019.7mb 72f
1:35 8 9 mph 1019.8mb 71f
1:20 8 9 mph 1020mb 71f
1:05 7 8 mph 1020.1mb 72f
12:50 7 8 mph 1020.1mb 71f
12:35 6 7 mph 1020.4mb 72f
12:20 7
mph
1020.4mb 72f
12:05 6 7 mph 1020.6mb 71f
11:50 7
mph
1020.8mb 71f
11:35 6 7 mph 1020.9mb 73f
11:20 5 6 mph 1020.9mb 71f
11:05 3 5 mph 1021.3mb 73f
10:50 3 5 mph 1021.3mb 73f
10:35 5 6 mph 1021.4mb 73f
10:20 6 7 mph 1021.5mb 72f
10:05 6 7 mph 1021.6mb 72f
9:50 3 5 mph 1021.7mb 73f
9:35 3 5 mph 1021.6mb 72f
9:20 3 5 mph 1021.6mb 72f
9:05 3 5 mph 1021.4mb 73f
8:50 5 7 mph 1021.3mb 71f
8:35 3 6 mph 1021.2mb 71f
8:20 5 7 mph 1021mb 69f
8:05 6 7 mph 1021mb 69f
7:50 7 8 mph 1020.9mb 68f
7:35 7 9 mph 1021.2mb 67f
7:20 10 11 mph 1021.2mb 67f
7:05 11 13 mph 1021.2mb 66f
6:50 9 11 mph 1021mb 66f
6:35 7 9 mph 1020.7mb 65f
6:20 9 11 mph 1020.7mb 64f
6:05 8 10 mph 1020.5mb 64f
5:50 9 10 mph 1020.6mb 63f
5:35 8 9 mph 1020.6mb 64f
5:20 9 10 mph 1020.6mb 64f
5:05 9 10 mph 1020.6mb 65f
4:50 9 11 mph 1020.5mb 65f
4:35 14 15 mph 1020.4mb 66f
4:20 13 15 mph 1020.4mb 66f
4:05 10 13 mph 1020.5mb 66f
3:50 10 11 mph 1020.5mb 66f
3:35 13 14 mph 1020.6mb 67f
3:20 11 14 mph 1020.6mb 67f
3:05 13 14 mph 1020.7mb 68f
2:50 10 11 mph 1020.7mb 68f
2:35 8 9 mph 1020.5mb 68f
2:20 6 8 mph 1020.6mb 69f
2:05 5 6 mph 1020.5mb 68f
1:50 5 6 mph 1020.5mb 68f
1:35 5 6 mph 1020.5mb 69f
1:20 3 6 mph 1020.5mb 69f
1:05 6 8 mph 1020.4mb 70f
lun 08/29 7:50 13 14 mph 1018.1mb 81f
7:35 13 14 mph 1018mb 81f
7:20 14 15 mph 1017.6mb 82f
7:05 16 18 mph 1017.4mb 83f
6:50 16 20 mph 1017.3mb 83f
6:35 16 21 mph 1017.1mb 84f
6:20 15 22 mph 1016.9mb 85f
6:05 17 21 mph 1016.9mb 85f
5:50 16 18 mph 1016.8mb 86f
5:35 20 24 mph 1016.6mb 86f
5:20 17 21 mph 1016.6mb 86f
5:05 17 20 mph 1016.6mb 86f
4:50 16 20 mph 1016.6mb 86f
4:35 20 23 mph 1016.4mb 87f
4:20 20 26 mph 1016.3mb 86f
4:05 18 24 mph 1016.4mb 86f
3:50 14 17 mph 1016.4mb 87f
3:35 10 15 mph 1016.4mb 87f
3:20 17 22 mph 1016.3mb 87f
3:05 20 25 mph 1016.2mb 87f
2:50 16 22 mph 1016.4mb 87f
2:35 17 26 mph 1016.5mb 87f
2:20 14 25 mph 1016.8mb 86f
2:05 15 22 mph 1016.8mb 86f
1:50 14 17 mph 1016.9mb 86f
1:35 17 20 mph 1016.9mb 84f
1:20 14 16 mph 1017.1mb 84f
1:05 15 17 mph 1017.1mb 84f
12:50 15 17 mph 1017mb 83f
12:35 13 18 mph 1017.2mb 83f
12:20 10 16 mph 1017.4mb 83f
12:05 11 15 mph 1017.3mb 78f
11:50 17 20 mph 1017.5mb 75f
11:35 16 18 mph 1017.6mb 75f
11:20 17 18 mph 1017.7mb 74f
11:05 15 17 mph 1018mb 74f
10:50 14 16 mph 1018.1mb 74f
10:35 14 15 mph 1018.2mb 73f
10:20 15 16 mph 1018.1mb 74f
10:05 15 16 mph 1018.2mb 74f
9:50 13 16 mph 1018.1mb 74f
9:35 11 13 mph 1018.3mb 74f
9:20 13 14 mph 1018.4mb 74f
9:05 11 13 mph 1018.6mb 74f
8:50 11 13 mph 1018.6mb 74f
8:35 8 9 mph 1018.6mb 73f
8:20 8 9 mph 1018.6mb 73f
8:05 9 10 mph 1018.7mb 73f
7:50 10 11 mph 1018.6mb 73f
7:35 11
mph
1018.7mb 73f
7:20 10
mph
1018.6mb 73f
7:05 10
mph
1018.6mb 73f
6:50 9 10 mph 1018.7mb 73f
6:35 9
mph
1018.7mb 72f
6:20 9 10 mph 1018.6mb 72f
6:05 8 9 mph 1018.6mb 73f
5:50 9 10 mph 1018.5mb 73f
5:35 10 11 mph 1018.6mb 73f
5:20 11 13 mph 1018.6mb 73f
5:05 11 13 mph 1018.8mb 73f
4:50 14 15 mph 1018.7mb 73f
4:35 14 16 mph 1019.1mb 73f
4:20 15 16 mph 1019.1mb 73f
4:05 15 16 mph 1019.3mb 73f
3:50 15 17 mph 1019.2mb 73f
3:35 15 16 mph 1019.4mb 73f
3:20 11 14 mph 1019.6mb 73f
3:05 13
mph
1019.6mb 73f
2:50 11 13 mph 1019.9mb 73f
2:35 9 11 mph 1020.2mb 73f
2:20 9 10 mph 1020.1mb 72f
2:05 9 10 mph 1020.2mb 72f
1:50 8 9 mph 1020.4mb 72f
1:35 8 9 mph 1020.7mb 72f
1:20 8 9 mph 1020.8mb 72f
1:05 7 8 mph 1020.8mb 71f
dom 08/28 7:50 6 7 mph 1021.3mb 72f
7:35 6
mph
1021.3mb 72f
7:20 6 7 mph 1021.5mb 72f
7:05 7 8 mph 1021.7mb 73f
6:50 7 9 mph 1021.7mb 73f
6:35 6 7 mph 1021.8mb 73f
6:20 8 10 mph 1021.8mb 73f
6:05 11 13 mph 1022mb 73f
5:50 11 13 mph 1021.9mb 73f
5:35 9 11 mph 1021.9mb 73f
5:20 9 10 mph 1022.1mb 73f
5:05 11 13 mph 1022.2mb 73f
4:50 11 14 mph 1022.3mb 73f
4:35 11 13 mph 1022.4mb 74f
4:20 11 13 mph 1022.5mb 74f
4:05 11 13 mph 1023mb 73f
3:50 9 10 mph 1023mb 74f
3:35 9
mph
1023.1mb 74f
3:20 8 9 mph 1023.2mb 74f
3:05 7 8 mph 1023.4mb 74f
2:50 8 9 mph 1023.5mb 75f
2:35 7 8 mph 1023.5mb 76f
2:20 7 8 mph 1023.7mb 76f
2:05 7 8 mph 1023.9mb 77f
1:50 7
mph
1024mb 77f
1:35 6 7 mph 1024mb 77f
1:20 6 7 mph 1024mb 78f
1:05 5 6 mph 1024.1mb 77f
12:50 5 6 mph 1024.2mb 75f
12:35 3 5 mph 1024.2mb 76f
12:20 3 5 mph 1024.4mb 77f
12:05 3 5 mph 1024.6mb 78f
11:50 2 3 mph 1024.7mb 76f
11:35 5
mph
1024.7mb 77f
11:20 5 6 mph 1024.9mb 76f
11:05 3
mph
1025.1mb 77f
10:50 3 5 mph 1025.2mb 76f
10:35 3 5 mph 1025.2mb 76f
10:20 6 7 mph 1025.2mb 75f
10:05 6 7 mph 1025.2mb 75f
9:50 3 5 mph 1025.2mb 76f
9:35 3
mph
1025.2mb 76f
9:20 3 5 mph 1025.1mb 74f
9:05 3 5 mph 1025mb 74f
8:50 3 5 mph 1024.9mb 73f
8:35 3 6 mph 1025mb 74f
8:20 2 3 mph 1025.1mb 76f
8:05 2 3 mph 1025.1mb 74f
7:50 3 5 mph 1025.1mb 73f
7:35 2 3 mph 1025.1mb 73f
7:20 3
mph
1025mb 71f
7:05 6 7 mph 1025mb 71f
6:50 5 6 mph 1025mb 70f
6:35 5 6 mph 1024.8mb 70f
6:20 5 6 mph 1024.8mb 69f
6:05 6 7 mph 1024.4mb 69f
5:50 7
mph
1024.2mb 69f
5:35 6 7 mph 1024.1mb 69f
5:20 5 6 mph 1024.1mb 69f
5:05 5 6 mph 1024mb 69f
4:50 5 6 mph 1023.8mb 70f
4:35 6
mph
1023.7mb 70f
4:20 6 7 mph 1023.5mb 70f
4:05 6 7 mph 1023.5mb 70f
3:50 6
mph
1023.5mb 70f
3:35 6
mph
1023.5mb 70f
3:20 6
mph
1023.4mb 70f
3:05 6 7 mph 1023.4mb 71f
2:50 7 8 mph 1023.4mb 71f
2:35 7 8 mph 1023.5mb 71f
2:20 7 8 mph 1023.5mb 71f
2:05 8
mph
1023.6mb 71f
1:50 7 8 mph 1023.7mb 71f
1:35 8
mph
1023.7mb 71f
1:20 6 7 mph 1023.7mb 71f
1:05 8
mph
1023.7mb 71f
sáb 08/27 7:50 9
mph
1022.1mb 74f
7:35 9 10 mph 1022mb 74f
7:20 10 11 mph 1021.8mb 74f
7:05 11
mph
1021.7mb 74f
6:50 11 13 mph 1021.5mb 75f
6:35 9 10 mph 1021.6mb 75f
6:20 8
mph
1021.6mb 75f
6:05 6 7 mph 1021.5mb 76f
5:50 6 7 mph 1021.6mb 77f
5:35 3 5 mph 1021.6mb 78f
5:20 3 6 mph 1021.5mb 78f
5:05 3
mph
1021.4mb 78f
4:50 3 5 mph 1021.4mb 76f
4:35 5 6 mph 1021.3mb 77f
4:20 6
mph
1021.3mb 76f
4:05 6
mph
1021.3mb 77f
3:50 7 8 mph 1021.3mb 77f
3:35 9
mph
1021.3mb 77f
3:20 8 9 mph 1021.2mb 76f
3:05 6 8 mph 1021.2mb 79f
2:50 6 8 mph 1021.2mb 78f
2:35 7 8 mph 1021.2mb 78f
2:20 7 8 mph 1021.3mb 78f
2:05 6 7 mph 1021.3mb 78f
1:50 8 9 mph 1021.3mb 78f
1:35 9 10 mph 1021.3mb 79f
1:20 8 9 mph 1021.4mb 79f
1:05 8 9 mph 1021.4mb 78f
12:50 9
mph
1021.3mb 79f
12:35 9 10 mph 1021.3mb 78f
12:20 9 10 mph 1021.3mb 80f
12:05 8 9 mph 1021.4mb 80f
11:50 6
mph
1021.4mb 80f
11:35 6
mph
1021.5mb 80f
11:20 3 5 mph 1021.5mb 79f
11:05 5
mph
1021.6mb 77f
10:50 5
mph
1021.6mb 79f
10:35 3 5 mph 1021.6mb 80f
10:20 3 5 mph 1021.8mb 80f
10:05 6 7 mph 1021.6mb 79f
9:50 5 7 mph 1021.6mb 80f
9:35 3 6 mph 1021.5mb 79f
9:20 10 11 mph 1021.3mb 78f
9:05 11 14 mph 1021.2mb 77f
8:50 13 15 mph 1021.1mb 76f
8:35 14
mph
1020.9mb 76f
8:20 14 15 mph 1020.7mb 75f
8:05 10 15 mph 1020.8mb 75f
7:50 13 14 mph 1020.8mb 73f
7:35 13 14 mph 1020.6mb 73f
7:20 11 13 mph 1020.6mb 72f
7:05 13 14 mph 1020.2mb 72f
6:50 11 13 mph 1020.1mb 72f
6:35 13
mph
1019.8mb 71f
6:20 9 10 mph 1019.6mb 71f
6:05 13 14 mph 1019.5mb 71f
5:50 11 13 mph 1019.2mb 71f
5:35 10 11 mph 1019mb 71f
5:20 10 11 mph 1018.7mb 71f
5:05 10 13 mph 1018.5mb 72f
4:50 13 14 mph 1018.5mb 72f
4:35 15 16 mph 1018.3mb 73f
4:20 14 16 mph 1018.2mb 73f
4:05 14 16 mph 1018.1mb 73f
3:50 13 16 mph 1018mb 73f
3:35 15 17 mph 1018mb 74f
3:20 14 17 mph 1018mb 74f
3:05 16 18 mph 1017.9mb 74f
2:50 20 23 mph 1017.6mb 75f
2:35 16 20 mph 1017.6mb 74f
2:20 15 17 mph 1017.6mb 74f